createdAt,value
2018-12-04T00:01:48.294Z,8.73
2018-12-04T00:04:18.715Z,6.75
2018-12-04T00:06:48.258Z,9.45
2018-12-04T00:09:18.702Z,8.55
2018-12-04T00:11:49.923Z,9.65
2018-12-04T00:14:19.719Z,7.05
2018-12-04T00:16:50.190Z,10.80
2018-12-04T00:19:21.395Z,8.08
2018-12-04T00:21:51.190Z,7.03
2018-12-04T00:24:21.669Z,6.97
2018-12-04T00:26:52.155Z,7.00
2018-12-04T00:29:22.510Z,8.68
2018-12-04T00:31:53.151Z,6.45
2018-12-04T00:34:24.263Z,7.65
2018-12-04T00:36:55.121Z,17.05
2018-12-04T00:39:26.343Z,16.05
2018-12-04T00:41:56.153Z,13.95
2018-12-04T00:44:26.541Z,9.50
2018-12-04T00:46:56.878Z,11.68
2018-12-04T00:49:27.514Z,10.03
2018-12-04T00:51:58.705Z,8.00
2018-12-04T00:54:28.633Z,8.35
2018-12-04T00:56:58.442Z,8.33
2018-12-04T00:59:27.615Z,7.00
2018-12-04T01:01:59.003Z,8.33
2018-12-04T01:04:29.613Z,7.30
2018-12-04T01:06:59.053Z,7.80
2018-12-04T01:09:28.477Z,11.43
2018-12-04T01:11:58.796Z,8.28
2018-12-04T01:14:29.290Z,6.73
2018-12-04T01:16:59.071Z,9.70
2018-12-04T01:19:28.549Z,11.13
2018-12-04T01:21:58.048Z,9.13
2018-12-04T01:24:28.586Z,9.68
2018-12-04T01:26:59.989Z,5.65
2018-12-04T01:29:30.505Z,7.90
2018-12-04T01:32:00.057Z,7.57
2018-12-04T01:34:29.538Z,9.83
2018-12-04T01:37:00.494Z,8.10
2018-12-04T01:39:30.430Z,9.47
2018-12-04T01:42:00.047Z,7.10
2018-12-04T01:44:29.370Z,9.10
2018-12-04T01:46:59.018Z,7.80
2018-12-04T01:49:29.116Z,8.23
2018-12-04T01:51:57.899Z,6.93
2018-12-04T01:54:26.756Z,7.03
2018-12-04T01:56:56.904Z,14.23
2018-12-04T01:59:26.436Z,5.00
2018-12-04T02:01:55.794Z,6.70
2018-12-04T02:04:26.420Z,6.53
2018-12-04T02:06:55.982Z,6.17
2018-12-04T02:09:25.410Z,7.77
2018-12-04T02:11:55.619Z,6.80
2018-12-04T02:14:25.411Z,6.77
2018-12-04T02:16:54.866Z,5.70
2018-12-04T02:19:25.270Z,6.67
2018-12-04T02:21:54.813Z,6.60
2018-12-04T02:24:24.317Z,8.03
2018-12-04T02:26:53.802Z,9.80
2018-12-04T02:29:22.633Z,7.67
2018-12-04T02:31:52.496Z,8.63
2018-12-04T02:34:22.257Z,7.75
2018-12-04T02:36:51.792Z,8.33
2018-12-04T02:39:21.954Z,13.80
2018-12-04T02:41:51.742Z,6.07
2018-12-04T02:44:22.154Z,6.67
2018-12-04T02:46:53.639Z,7.45
2018-12-04T02:49:24.231Z,9.25
2018-12-04T02:51:54.627Z,13.60
2018-12-04T02:54:24.177Z,11.33
2018-12-04T02:56:53.643Z,13.30
2018-12-04T02:59:24.189Z,10.10
2018-12-04T03:01:53.674Z,26.20
2018-12-04T03:04:23.890Z,22.65
2018-12-04T03:06:53.658Z,27.20
2018-12-04T03:09:23.027Z,29.70
2018-12-04T03:11:52.656Z,23.83
2018-12-04T03:14:23.021Z,13.58
2018-12-04T03:16:53.542Z,14.55
2018-12-04T03:19:24.166Z,11.88
2018-12-04T03:21:54.635Z,11.45
2018-12-04T03:24:25.858Z,9.58
2018-12-04T03:26:56.375Z,11.25
2018-12-04T03:29:27.139Z,15.08
2018-12-04T03:31:57.664Z,7.12
2018-12-04T03:37:22.766Z,11.40
2018-12-04T03:39:56.156Z,7.33
2018-12-04T03:42:26.542Z,10.03
2018-12-04T03:44:56.314Z,11.75
2018-12-04T03:47:32.979Z,11.85
2018-12-04T03:53:36.548Z,13.83
2018-12-04T03:56:10.017Z,10.72
2018-12-04T03:58:49.724Z,13.48
2018-12-04T04:01:24.003Z,10.35
2018-12-04T04:03:58.772Z,11.60
2018-12-04T04:06:28.302Z,9.53
2018-12-04T04:08:57.815Z,11.88
2018-12-04T04:18:31.487Z,9.53
2018-12-04T04:21:08.148Z,7.05
2018-12-04T04:23:41.583Z,7.83
2018-12-04T04:29:43.242Z,13.28
2018-12-04T04:35:43.880Z,8.38
2018-12-04T04:38:28.478Z,11.63
2018-12-04T04:41:00.986Z,11.93
2018-12-04T04:43:30.504Z,12.18
2018-12-04T04:49:27.960Z,8.13
2018-12-04T04:52:00.594Z,8.78
2018-12-04T04:54:31.044Z,10.50
2018-12-04T04:57:08.546Z,8.33
2018-12-04T05:06:39.205Z,5.90
2018-12-04T05:09:21.603Z,9.43
2018-12-04T05:11:52.998Z,6.30
2018-12-04T05:14:24.462Z,7.55
2018-12-04T05:16:57.434Z,17.23
2018-12-04T05:19:32.032Z,7.35
2018-12-04T05:22:07.065Z,9.28
2018-12-04T05:28:07.706Z,9.13
2018-12-04T05:30:38.575Z,7.37
2018-12-04T05:33:14.926Z,6.45
2018-12-04T05:35:48.899Z,4.55
2018-12-04T05:38:25.894Z,6.15
2018-12-04T05:40:55.836Z,4.78
2018-12-04T05:43:28.703Z,6.47
2018-12-04T05:46:05.782Z,7.55
2018-12-04T05:48:35.606Z,7.83
2018-12-04T05:51:06.834Z,6.83
2018-12-04T05:53:46.707Z,11.18
2018-12-04T05:56:23.731Z,13.32
2018-12-04T05:58:54.620Z,9.33
2018-12-04T06:01:31.686Z,8.40
2018-12-04T06:04:05.587Z,8.88
2018-12-04T06:06:45.325Z,10.23
2018-12-04T06:09:22.504Z,13.05
2018-12-04T06:11:59.619Z,8.60
2018-12-04T06:14:40.484Z,7.00
2018-12-04T06:17:14.954Z,8.55
2018-12-04T06:19:48.656Z,12.35
2018-12-04T06:22:26.216Z,7.50
2018-12-04T06:24:59.651Z,10.13
2018-12-04T06:27:30.390Z,7.78
2018-12-04T06:30:05.429Z,10.82
2018-12-04T06:33:20.771Z,8.78
2018-12-04T06:35:55.230Z,7.33
2018-12-04T06:38:32.005Z,8.08
2018-12-04T06:41:05.781Z,10.45
2018-12-04T06:43:36.521Z,8.95
2018-12-04T06:46:09.642Z,11.00
2018-12-04T06:48:39.601Z,7.65
2018-12-04T06:51:14.257Z,7.30
2018-12-04T06:53:46.933Z,6.83
2018-12-04T06:56:19.493Z,12.95
2018-12-04T06:58:49.283Z,7.87
2018-12-04T07:05:00.127Z,10.15
2018-12-04T07:07:42.188Z,9.38
2018-12-04T07:34:39.278Z,13.55
2018-12-04T07:37:45.210Z,17.02
2018-12-04T07:40:21.969Z,22.62
2018-12-04T07:42:59.689Z,12.65
2018-12-04T07:45:36.674Z,12.70
2018-12-04T07:48:12.931Z,11.80
2018-12-04T07:50:48.898Z,17.03
2018-12-04T07:53:24.894Z,17.67
2018-12-04T07:55:58.754Z,20.30
2018-12-04T07:58:34.943Z,16.83
2018-12-04T08:01:11.837Z,14.83
2018-12-04T08:07:15.325Z,11.90
2018-12-04T08:13:22.122Z,7.23
2018-12-04T08:15:50.841Z,5.27
2018-12-04T08:18:23.413Z,7.10
2018-12-04T08:21:00.681Z,11.00
2018-12-04T08:27:08.483Z,6.80
2018-12-04T08:29:40.833Z,8.57
2018-12-04T08:35:44.098Z,6.10
2018-12-04T08:38:13.108Z,5.80
2018-12-04T08:44:12.595Z,5.90
2018-12-04T08:50:14.250Z,4.80
2018-12-04T08:52:43.201Z,4.78
2018-12-04T08:55:21.210Z,4.90
2018-12-04T08:57:58.113Z,6.00
2018-12-04T09:00:36.233Z,3.80
2018-12-04T09:06:43.810Z,3.20
2018-12-04T09:09:20.793Z,6.03
2018-12-04T09:11:49.530Z,5.40
2018-12-04T09:14:26.693Z,4.23
2018-12-04T09:17:02.766Z,4.73
2018-12-04T09:23:06.378Z,2.17
2018-12-04T09:25:39.306Z,2.20
2018-12-04T09:28:16.444Z,3.90
2018-12-04T09:30:53.391Z,3.10
2018-12-04T09:33:22.358Z,2.53
2018-12-04T09:35:55.269Z,3.43
2018-12-04T09:45:28.899Z,2.40
2018-12-04T09:51:29.178Z,2.63
2018-12-04T09:57:27.162Z,2.43
2018-12-04T10:00:04.017Z,2.40
2018-12-04T10:02:32.709Z,2.70
2018-12-04T10:05:09.725Z,5.50
2018-12-04T10:14:30.334Z,1.33
2018-12-04T10:17:03.814Z,2.27
2018-12-04T10:19:33.773Z,5.60
2018-12-04T10:25:37.504Z,1.87
2018-12-04T10:28:10.393Z,1.90
2018-12-04T10:30:39.131Z,2.47
2018-12-04T10:33:13.073Z,1.93
2018-12-04T10:39:15.290Z,2.93
2018-12-04T10:48:44.257Z,2.17
2018-12-04T10:51:20.234Z,2.17
2018-12-04T10:53:49.178Z,2.70
2018-12-04T10:56:25.953Z,2.90
2018-12-04T10:58:54.800Z,2.47
2018-12-04T11:04:56.718Z,3.13
2018-12-04T11:07:28.670Z,2.20
2018-12-04T11:13:35.143Z,2.90
2018-12-04T11:19:34.870Z,2.43
2018-12-04T11:22:07.638Z,3.13
2018-12-04T11:24:39.871Z,3.10
2018-12-04T11:34:07.653Z,2.40
2018-12-04T11:36:36.334Z,3.13
2018-12-04T11:42:31.256Z,1.33
2018-12-04T11:45:04.483Z,0.88
2018-12-04T11:47:34.322Z,1.40
2018-12-04T11:50:10.624Z,1.10
2018-12-04T11:52:44.297Z,1.85
2018-12-04T11:55:22.162Z,0.90
2018-12-04T12:01:29.566Z,1.93
2018-12-04T12:04:07.003Z,1.60
2018-12-04T12:06:42.945Z,1.67
2018-12-04T12:09:19.167Z,2.70
2018-12-04T12:15:21.746Z,1.73
2018-12-04T12:18:03.594Z,1.97
2018-12-04T12:24:06.409Z,4.83
2018-12-04T12:26:35.326Z,2.13
2018-12-04T12:32:30.870Z,1.83
2018-12-04T12:38:26.288Z,2.10
2018-12-04T12:41:02.423Z,2.27
2018-12-04T12:50:26.579Z,2.20
2018-12-04T12:53:11.778Z,1.47
2018-12-04T12:55:44.689Z,1.10
2018-12-04T12:58:26.389Z,2.50
2018-12-04T13:00:56.225Z,2.63
2018-12-04T13:10:33.637Z,1.10
2018-12-04T13:16:32.543Z,0.97
2018-12-04T13:19:08.633Z,1.20
2018-12-04T13:25:14.981Z,2.10
2018-12-04T13:34:43.595Z,1.33
2018-12-04T13:37:15.978Z,0.90
2018-12-04T13:39:47.951Z,0.90
2018-12-04T13:45:49.849Z,0.60
2018-12-04T13:51:51.961Z,0.77
2018-12-04T13:54:21.602Z,1.13
2018-12-04T13:56:54.673Z,1.10
2018-12-04T14:02:57.190Z,0.70
2018-12-04T14:08:59.618Z,0.90
2018-12-04T14:11:28.876Z,0.60
2018-12-04T14:24:29.478Z,0.70
2018-12-04T14:27:05.893Z,0.60
2018-12-04T14:29:42.735Z,1.10
2018-12-04T14:32:11.818Z,0.83
2018-12-04T14:34:42.762Z,0.65
2018-12-04T14:37:18.794Z,0.90
2018-12-04T14:39:48.552Z,1.10
2018-12-04T14:42:21.388Z,0.70
2018-12-04T14:48:24.050Z,0.80
2018-12-04T14:50:56.720Z,1.00
2018-12-04T14:53:26.137Z,1.00
2018-12-04T14:56:04.221Z,0.80
2018-12-04T14:58:34.126Z,1.00
2018-12-04T15:01:07.070Z,0.90
2018-12-04T15:03:45.220Z,2.40
2018-12-04T15:06:21.984Z,1.27
2018-12-04T15:12:19.703Z,1.40
2018-12-04T15:14:56.613Z,4.70
2018-12-04T15:21:04.531Z,3.30
2018-12-04T15:30:37.962Z,2.13
2018-12-04T15:33:07.717Z,2.10
2018-12-04T15:35:44.616Z,1.60
2018-12-04T15:41:48.371Z,0.90
2018-12-04T15:44:17.095Z,1.37
2018-12-04T15:46:46.213Z,1.30
2018-12-04T15:49:20.039Z,2.07
2018-12-04T15:55:22.686Z,1.80
2018-12-04T15:57:52.563Z,1.13
2018-12-04T16:00:24.675Z,1.80
2018-12-04T16:06:26.977Z,1.20
2018-12-04T16:08:56.545Z,0.93
2018-12-04T16:11:32.746Z,1.47
2018-12-04T16:14:01.544Z,2.10
2018-12-04T16:16:30.971Z,3.87
2018-12-04T16:19:07.990Z,2.67
2018-12-04T16:21:38.016Z,1.60
2018-12-04T16:24:14.730Z,2.03
2018-12-04T16:26:43.946Z,13.33
2018-12-04T16:32:46.530Z,2.90
2018-12-04T16:35:18.790Z,1.40
2018-12-04T16:37:49.114Z,4.30
2018-12-04T16:43:50.773Z,1.87
2018-12-04T16:49:46.713Z,3.37
2018-12-04T16:52:22.726Z,1.47
2018-12-04T16:58:22.353Z,1.60
2018-12-04T17:00:51.275Z,5.60
2018-12-04T17:03:24.234Z,2.40
2018-12-04T17:09:25.389Z,4.63
2018-12-04T17:22:18.870Z,8.50
2018-12-04T17:28:14.549Z,7.53
2018-12-04T17:34:18.058Z,11.70
2018-12-04T17:36:50.475Z,7.40
2018-12-04T17:42:49.434Z,8.20
2018-12-04T17:45:26.487Z,8.43
2018-12-04T17:48:05.789Z,9.60
2018-12-04T17:50:35.534Z,7.75
2018-12-04T17:53:08.524Z,8.15
2018-12-04T17:55:38.289Z,6.30
2018-12-04T17:58:15.434Z,4.20
2018-12-04T18:00:53.274Z,4.17
2018-12-04T18:03:30.525Z,10.90
2018-12-04T18:06:04.521Z,10.43
2018-12-04T18:08:43.610Z,7.92
2018-12-04T18:11:14.359Z,5.15
2018-12-04T18:13:57.568Z,4.47
2018-12-04T18:16:35.745Z,4.50
2018-12-04T18:19:07.029Z,3.23
2018-12-04T18:21:40.583Z,2.65
2018-12-04T18:24:11.341Z,9.60
2018-12-04T18:26:49.331Z,2.73
2018-12-04T18:29:38.684Z,2.83
2018-12-04T18:32:12.653Z,3.12
2018-12-04T18:34:43.107Z,5.60
2018-12-04T18:37:21.595Z,9.70
2018-12-04T18:39:56.542Z,9.57
2018-12-04T18:42:29.553Z,6.27
2018-12-04T18:45:12.377Z,12.15
2018-12-04T18:47:42.584Z,62.10
2018-12-04T18:50:21.699Z,31.10
2018-12-04T18:53:01.454Z,36.70
2018-12-04T18:55:30.601Z,76.03
2018-12-04T19:01:30.176Z,32.30
2018-12-04T19:14:52.385Z,6.37
2018-12-04T19:20:50.939Z,6.00
2018-12-04T19:23:30.754Z,5.83
2018-12-04T19:26:15.002Z,5.60
2018-12-04T19:33:16.399Z,4.70
2018-12-04T19:35:55.081Z,4.67
2018-12-04T19:38:30.036Z,5.60
2018-12-04T19:41:54.668Z,2.35
2018-12-04T19:47:59.573Z,2.42
2018-12-04T19:50:43.521Z,2.00
2018-12-04T19:53:24.962Z,1.10
2018-12-04T19:56:31.888Z,4.95
2018-12-04T20:06:14.862Z,11.15
2018-12-04T20:09:02.050Z,9.05
2018-12-04T20:11:33.610Z,9.13
2018-12-04T20:14:13.862Z,13.32
2018-12-04T20:16:46.806Z,14.20
2018-12-04T20:19:22.184Z,13.78
2018-12-04T20:22:00.128Z,14.55
2018-12-04T20:25:17.039Z,17.80
2018-12-04T20:30:33.569Z,20.90
2018-12-04T20:33:07.517Z,19.07
2018-12-04T20:35:38.139Z,18.90
2018-12-04T20:39:01.641Z,22.42
2018-12-04T20:41:31.850Z,19.50
2018-12-04T20:44:15.788Z,22.90
2018-12-04T20:46:49.873Z,20.25
2018-12-04T20:49:27.972Z,25.55
2018-12-04T20:52:05.850Z,30.15
2018-12-04T20:54:40.509Z,36.40
2018-12-04T21:01:16.629Z,20.68
2018-12-04T21:03:54.772Z,30.77
2018-12-04T21:06:38.072Z,23.45
2018-12-04T21:26:36.730Z,17.95
2018-12-04T21:29:22.074Z,16.00
2018-12-04T21:39:06.922Z,17.00
2018-12-04T21:41:52.225Z,13.05
2018-12-04T22:02:05.124Z,8.23
2018-12-04T22:04:58.665Z,9.73
2018-12-04T22:07:44.535Z,7.28
2018-12-04T22:10:31.711Z,9.58
2018-12-04T22:13:20.039Z,7.62
2018-12-04T22:16:11.241Z,5.90
2018-12-04T22:33:13.027Z,10.65
2018-12-04T22:38:52.421Z,9.10
2018-12-04T22:41:37.362Z,9.05
2018-12-04T22:44:16.468Z,11.08
2018-12-04T22:58:02.201Z,10.32
2018-12-04T23:25:29.974Z,2.62
2018-12-04T23:49:34.612Z,1.65
